Time;durP1;ratioP1;P1;durP2;ratioP2;P2;SDS_P1;SDS_P2;PMS_P1;PMS_P2;Temp;Humidity;BMP_temperature;BMP_pressure;BME280_temperature;BME280_humidity;BME280_pressure;Samples;Min_cycle;Max_cycle;Signal;HPM_P1;HPM_P2
2023/08/04 04:22:33;;;;;;;4.13;1.70;;;;;;;14.77;100.00;99698.19;5130292;27;20835;-66
2023/08/04 04:25:00;;;;;;;4.35;2.00;;;;;;;14.73;100.00;99697.78;5130137;28;20477;-66
2023/08/04 04:27:25;;;;;;;2.40;1.80;;;;;;;14.74;100.00;99696.75;5130057;28;20089;-66
2023/08/04 04:29:50;;;;;;;3.97;1.88;;;;;;;14.74;100.00;99696.75;5129773;28;20039;-66
2023/08/04 04:32:16;;;;;;;4.28;1.60;;;;;;;14.71;100.00;99702.53;5130141;28;20051;-66
2023/08/04 04:34:41;;;;;;;4.45;1.40;;;;;;;14.75;100.00;99698.41;5130137;27;20035;-66
2023/08/04 04:37:07;;;;;;;3.03;1.67;;;;;;;14.74;100.00;99699.44;5129917;28;20035;-67
2023/08/04 04:39:32;;;;;;;3.38;1.65;;;;;;;14.76;100.00;99705.41;5129631;28;20027;-66
2023/08/04 04:41:57;;;;;;;2.72;1.63;;;;;;;14.79;100.00;99702.28;5129846;28;20092;-65
2023/08/04 04:44:23;;;;;;;4.18;1.80;;;;;;;14.79;100.00;99702.28;5129844;28;20043;-65
2023/08/04 04:46:49;;;;;;;4.88;1.85;;;;;;;14.80;100.00;99708.47;5125024;27;20095;-66
2023/08/04 04:49:16;;;;;;;3.67;1.73;;;;;;;14.81;100.00;99713.63;5127525;28;20038;-66
2023/08/04 04:51:42;;;;;;;5.32;2.45;;;;;;;14.84;100.00;99709.69;5129689;27;20508;-66
2023/08/04 04:54:07;;;;;;;6.03;4.03;;;;;;;14.84;100.00;99715.06;5128047;27;20043;-65
2023/08/04 04:56:32;;;;;;;2.95;1.83;;;;;;;14.91;100.00;99715.84;5128322;28;20127;-66
2023/08/04 04:58:58;;;;;;;5.00;2.20;;;;;;;14.89;100.00;99723.28;5129161;27;20035;-65
2023/08/04 05:01:23;;;;;;;2.60;1.73;;;;;;;14.88;100.00;99717.09;5129403;28;20039;-66
2023/08/04 05:03:48;;;;;;;4.70;1.58;;;;;;;14.90;100.00;99717.72;5128740;27;20125;-66
2023/08/04 05:06:14;;;;;;;2.83;1.45;;;;;;;14.95;100.00;99718.94;5129443;28;20039;-66
2023/08/04 05:08:39;;;;;;;6.22;1.98;;;;;;;14.89;100.00;99724.13;5129068;27;20079;-66
2023/08/04 05:11:05;;;;;;;3.92;1.52;;;;;;;14.90;100.00;99723.06;5129308;28;20087;-66
2023/08/04 05:13:30;;;;;;;4.75;1.63;;;;;;;14.93;100.00;99729.84;5129220;28;20043;-66
2023/08/04 05:15:55;;;;;;;4.45;1.98;;;;;;;14.93;100.00;99728.03;5129147;28;20038;-66
2023/08/04 05:18:21;;;;;;;6.50;1.50;;;;;;;14.94;100.00;99731.53;5128993;27;20505;-66
2023/08/04 05:20:47;;;;;;;3.63;1.75;;;;;;;14.97;100.00;99732.94;5128919;28;20044;-66
2023/08/04 05:23:13;;;;;;;2.83;1.80;;;;;;;15.02;100.00;99733.13;5129118;28;20041;-66
2023/08/04 05:25:39;;;;;;;4.13;1.90;;;;;;;15.04;100.00;99728.38;5128974;28;20035;-65
2023/08/04 05:28:27;;;;;;;3.30;1.55;;;;;;;15.06;100.00;99734.31;5128837;28;20035;-67
2023/08/04 05:31:03;;;;;;;5.63;2.00;;;;;;;15.09;100.00;99732.06;5128989;27;20038;-64
2023/08/04 05:33:30;;;;;;;3.40;1.50;;;;;;;15.08;100.00;99727.72;5117658;28;20043;-65
2023/08/04 05:35:56;;;;;;;5.25;1.83;;;;;;;15.11;100.00;99729.97;5115192;28;20033;-65
2023/08/04 05:38:23;;;;;;;4.47;1.70;;;;;;;15.19;100.00;99739.63;5114838;27;20027;-65
2023/08/04 05:40:49;;;;;;;3.85;1.33;;;;;;;15.15;100.00;99741.91;5114941;28;20038;-65
2023/08/04 05:43:15;;;;;;;5.32;1.70;;;;;;;15.19;100.00;99739.63;5115129;28;20032;-65
2023/08/04 05:45:43;;;;;;;4.70;1.92;;;;;;;15.21;100.00;99748.28;5115020;28;20417;-65
2023/08/04 05:48:09;;;;;;;5.20;1.65;;;;;;;15.23;100.00;99745.38;5113532;28;20035;-65
2023/08/04 05:50:34;;;;;;;1.92;1.42;;;;;;;15.24;100.00;99744.34;5114972;28;20127;-65
2023/08/04 05:53:00;;;;;;;3.13;1.55;;;;;;;15.25;100.00;99743.31;5114851;28;20107;-64
2023/08/04 05:55:26;;;;;;;3.80;1.55;;;;;;;15.31;100.00;99745.13;5114752;28;20064;-64
2023/08/04 05:57:51;;;;;;;3.80;1.45;;;;;;;15.35;100.00;99747.16;5114595;28;20036;-65
2023/08/04 06:00:17;;;;;;;4.75;1.80;;;;;;;15.43;100.00;99749.59;5114702;28;20039;-65
2023/08/04 06:02:44;;;;;;;4.20;1.92;;;;;;;15.47;100.00;99748.13;5114728;28;20050;-64
2023/08/04 06:05:13;;;;;;;4.70;2.53;;;;;;;15.52;100.00;99754.69;5114602;28;20494;-65
2023/08/04 06:07:40;;;;;;;7.32;2.65;;;;;;;15.59;100.00;99758.16;5114539;28;20504;-65
2023/08/04 06:10:06;;;;;;;6.07;1.85;;;;;;;15.67;100.00;99758.75;5114303;28;20028;-65
2023/08/04 06:12:31;;;;;;;3.47;2.05;;;;;;;15.66;100.00;99756.28;5113274;28;20089;-64
2023/08/04 06:14:57;;;;;;;4.25;1.95;;;;;;;15.79;100.00;99760.72;5114470;28;20539;-64
2023/08/04 06:17:22;;;;;;;2.90;1.67;;;;;;;15.79;100.00;99763.41;5114388;28;20105;-65
2023/08/04 06:19:48;;;;;;;3.20;1.55;;;;;;;15.82;100.00;99758.41;5114091;28;20378;-65
2023/08/04 06:22:13;;;;;;;5.15;1.73;;;;;;;15.87;100.00;99765.81;5114185;27;20047;-65
2023/08/04 06:24:39;;;;;;;3.28;1.85;;;;;;;15.94;100.00;99771.97;5113040;28;20035;-65
2023/08/04 06:27:05;;;;;;;4.15;1.77;;;;;;;15.98;100.00;99768.63;5114398;28;20408;-65
2023/08/04 06:29:31;;;;;;;3.58;1.67;;;;;;;15.99;100.00;99767.59;5114077;28;20036;-65
2023/08/04 06:31:56;;;;;;;2.70;1.45;;;;;;;16.04;100.00;99760.72;5114197;28;20482;-65
2023/08/04 06:34:22;;;;;;;5.75;1.40;;;;;;;16.14;100.00;99766.41;5112316;28;20055;-65
2023/08/04 06:36:47;;;;;;;3.60;1.63;;;;;;;16.25;100.00;99765.69;5114154;28;20520;-63
2023/08/04 06:39:13;;;;;;;2.28;1.30;;;;;;;16.29;100.00;99766.88;5095178;28;20039;-66
2023/08/04 06:41:39;;;;;;;4.00;1.95;;;;;;;16.42;100.00;99763.22;5113523;28;20046;-65
2023/08/04 06:44:05;;;;;;;3.55;1.60;;;;;;;16.42;100.00;99769.44;5111327;28;20044;-65
2023/08/04 06:46:30;;;;;;;3.42;2.10;;;;;;;16.32;100.00;99768.31;5113408;28;20042;-64
2023/08/04 06:48:56;;;;;;;4.75;1.35;;;;;;;16.30;100.00;99773.91;5112627;28;20074;-65
2023/08/04 06:51:21;;;;;;;3.63;1.30;;;;;;;16.24;100.00;99772.94;5112092;28;20082;-64
2023/08/04 06:53:47;;;;;;;3.22;1.85;;;;;;;16.18;100.00;99773.00;5113297;28;20529;-64
2023/08/04 06:56:12;;;;;;;4.65;1.30;;;;;;;16.12;100.00;99776.56;5113247;28;20070;-65
2023/08/04 06:58:37;;;;;;;3.17;1.40;;;;;;;16.14;100.00;99779.84;5113125;28;20089;-65
2023/08/04 07:01:03;;;;;;;4.18;1.58;;;;;;;16.10;100.00;99784.81;5113121;28;20438;-65
2023/08/04 07:03:28;;;;;;;4.05;1.33;;;;;;;16.11;100.00;99777.63;5111935;28;20039;-65
2023/08/04 07:05:53;;;;;;;2.47;1.60;;;;;;;16.14;100.00;99779.84;5113011;28;20039;-65
2023/08/04 07:08:19;;;;;;;5.20;1.50;;;;;;;16.21;100.00;99772.53;5112642;28;20043;-65
2023/08/04 07:10:45;;;;;;;2.53;1.50;;;;;;;16.27;100.00;99779.72;5113080;28;20039;-64
2023/08/04 07:13:10;;;;;;;2.25;1.23;;;;;;;16.36;100.00;99780.25;5110286;28;20067;-65
2023/08/04 07:15:36;;;;;;;3.25;1.42;;;;;;;16.40;100.00;99776.09;5112885;28;20122;-65
2023/08/04 07:18:02;;;;;;;2.65;1.20;;;;;;;16.47;100.00;99788.41;5112719;28;20035;-65
2023/08/04 07:20:28;;;;;;;5.82;1.33;;;;;;;16.52;100.00;99790.44;5112606;28;20034;-65
2023/08/04 07:22:54;;;;;;;3.22;1.38;;;;;;;16.56;100.00;99794.31;5112830;28;20043;-65
2023/08/04 07:25:20;;;;;;;2.13;1.15;;;;;;;16.65;100.00;99790.28;5112806;28;20548;-65
2023/08/04 07:27:45;;;;;;;2.92;1.33;;;;;;;16.65;100.00;99797.53;5112572;27;20040;-65
2023/08/04 07:30:10;;;;;;;1.25;1.10;;;;;;;16.68;100.00;99797.91;5112562;28;20406;-65
2023/08/04 07:32:36;;;;;;;3.35;1.50;;;;;;;16.79;100.00;99794.50;5112662;28;20629;-65
2023/08/04 07:35:02;;;;;;;4.30;1.27;;;;;;;16.85;100.00;99798.16;5112603;28;20036;-65
2023/08/04 07:37:28;;;;;;;2.40;1.30;;;;;;;16.90;100.00;99801.00;5112531;28;20039;-65
2023/08/04 07:39:54;;;;;;;2.85;1.20;;;;;;;16.97;100.00;99800.94;5112245;28;20043;-65
2023/08/04 07:42:19;;;;;;;2.85;1.25;;;;;;;17.11;100.00;99798.91;5112480;28;20066;-66
2023/08/04 07:44:44;;;;;;;4.43;1.48;;;;;;;17.20;100.00;99806.41;5112146;28;20135;-65
2023/08/04 07:47:10;;;;;;;3.10;1.45;;;;;;;17.28;100.00;99797.22;5111220;28;20036;-65
2023/08/04 07:49:35;;;;;;;3.67;1.42;;;;;;;17.31;100.00;99791.38;5112153;28;20032;-65
2023/08/04 07:52:00;;;;;;;5.30;1.58;;;;;;;17.29;100.00;99794.31;5111027;28;20028;-65
2023/08/04 07:54:26;;;;;;;4.95;1.40;;;;;;;17.41;100.00;99798.88;5112362;28;20493;-65
2023/08/04 07:56:51;;;;;;;3.08;1.27;;;;;;;17.43;100.00;99800.31;5111963;28;20055;-65
2023/08/04 07:59:17;;;;;;;3.25;1.58;;;;;;;17.33;100.00;99800.03;5112178;28;20489;-65
2023/08/04 08:01:42;;;;;;;5.22;1.55;;;;;;;17.44;100.00;99799.25;5112503;28;20046;-65
2023/08/04 08:04:07;;;;;;;4.32;1.45;;;;;;;17.50;100.00;99809.13;5112659;28;20094;-66
2023/08/04 08:06:33;;;;;;;6.10;2.03;;;;;;;17.61;100.00;99808.34;5112471;28;20111;-65
2023/08/04 08:08:58;;;;;;;3.03;1.77;;;;;;;17.64;100.00;99804.34;5112268;28;20042;-65
2023/08/04 08:11:23;;;;;;;2.40;1.25;;;;;;;17.75;100.00;99816.25;5111353;28;20100;-66
2023/08/04 08:13:49;;;;;;;3.05;1.45;;;;;;;17.80;100.00;99810.97;5112600;28;20044;-66
2023/08/04 08:16:17;;;;;;;2.92;1.45;;;;;;;17.78;100.00;99818.47;5112459;28;20110;-66
2023/08/04 08:18:43;;;;;;;5.88;1.65;;;;;;;17.72;100.00;99819.41;5112138;28;20024;-64
2023/08/04 08:21:09;;;;;;;4.05;1.65;;;;;;;17.72;100.00;99814.00;5112240;28;20039;-66
2023/08/04 08:23:36;;;;;;;4.75;1.35;;;;;;;17.80;100.00;99824.44;5112554;28;20031;-65
2023/08/04 08:26:03;;;;;;;4.63;1.65;;;;;;;17.73;100.00;99821.03;5112302;28;20019;-65
2023/08/04 08:28:28;;;;;;;2.40;1.30;;;;;;;17.70;100.00;99819.59;5112129;28;20117;-65
2023/08/04 08:30:54;;;;;;;2.88;1.50;;;;;;;17.71;100.00;99823.97;5112274;28;20039;-66
2023/08/04 08:33:19;;;;;;;8.25;1.75;;;;;;;17.75;100.00;99825.16;5112189;28;20034;-66
2023/08/04 08:35:45;;;;;;;4.80;1.50;;;;;;;17.75;100.00;99824.34;5110984;28;20160;-66
2023/08/04 08:38:10;;;;;;;4.68;1.90;;;;;;;17.75;100.00;99825.16;5111993;28;20363;-66
2023/08/04 08:40:36;;;;;;;5.60;1.70;;;;;;;17.83;100.00;99829.38;5112110;28;20135;-66
2023/08/04 08:43:02;;;;;;;3.63;1.80;;;;;;;17.87;100.00;99825.19;5112328;28;20110;-65
2023/08/04 08:45:28;;;;;;;2.72;1.50;;;;;;;17.99;100.00;99807.16;5112234;28;20040;-65
2023/08/04 08:47:55;;;;;;;3.70;1.42;;;;;;;18.09;100.00;99818.19;5111610;28;20505;-66
2023/08/04 08:50:25;;;;;;;4.20;1.58;;;;;;;18.21;100.00;99820.91;5112043;28;20509;-66
2023/08/04 08:53:06;;;;;;;2.40;1.63;;;;;;;18.38;100.00;99818.31;5112171;28;20047;-66
2023/08/04 08:55:32;;;;;;;4.00;1.60;;;;;;;18.57;100.00;99817.13;5112098;28;20035;-65
2023/08/04 08:58:00;;;;;;;4.67;1.57;;;;;;;18.65;100.00;99822.19;5111829;28;20023;-65
2023/08/04 09:00:25;;;;;;;3.60;1.80;;;;;;;18.76;100.00;99817.03;5111822;28;20775;-65
2023/08/04 09:02:51;;;;;;;3.30;1.70;;;;;;;18.89;100.00;99814.91;5111861;28;20066;-66
2023/08/04 09:05:17;;;;;;;4.97;1.75;;;;;;;18.93;100.00;99812.56;5112170;28;20402;-66
2023/08/04 09:07:42;;;;;;;4.28;1.70;;;;;;;18.93;100.00;99816.06;5113150;28;20027;-65
2023/08/04 09:10:08;;;;;;;3.03;1.60;;;;;;;19.17;100.00;99819.53;5115898;28;20028;-66
2023/08/04 09:12:34;;;;;;;3.05;1.50;;;;;;;19.22;100.00;99819.63;5115840;28;20148;-66
2023/08/04 09:15:01;;;;;;;5.10;1.70;;;;;;;19.34;100.00;99816.88;5115702;28;20070;-65
2023/08/04 09:17:36;;;;;;;3.97;1.88;;;;;;;19.44;100.00;99808.16;5115480;28;20050;-65
2023/08/04 09:20:05;;;;;;;8.35;2.10;;;;;;;19.65;100.00;99810.19;5115435;28;20039;-65
2023/08/04 09:22:32;;;;;;;3.85;1.65;;;;;;;19.84;100.00;99815.38;5115728;28;20517;-65
2023/08/04 09:25:02;;;;;;;2.90;1.58;;;;;;;19.88;100.00;99813.81;5115660;28;20039;-64
2023/08/04 09:27:38;;;;;;;2.83;1.80;;;;;;;20.02;100.00;99815.97;5115455;28;20036;-65
2023/08/04 09:30:08;;;;;;;4.65;1.60;;;;;;;20.33;99.53;99817.25;5115097;28;20034;-65
2023/08/04 09:32:44;;;;;;;3.10;1.75;;;;;;;20.48;97.59;99824.81;5115147;28;20031;-65
2023/08/04 09:35:10;;;;;;;4.35;1.83;;;;;;;20.53;92.55;99832.19;5115315;28;20039;-65
2023/08/04 09:37:37;;;;;;;5.32;1.80;;;;;;;20.51;94.45;99832.44;5115253;28;20081;-66
2023/08/04 09:40:15;;;;;;;5.28;1.45;;;;;;;20.64;93.67;99823.16;5114906;28;20042;-65
2023/08/04 09:42:42;;;;;;;;;;;;;;;20.78;91.74;99827.13;5115751;28;20039;-66
2023/08/04 09:45:08;;;;;;;2.40;1.42;;;;;;;20.80;89.86;99819.59;5115063;28;20006;-65
2023/08/04 09:47:33;;;;;;;4.18;1.60;;;;;;;20.76;91.90;99821.16;5115141;28;20096;-64
2023/08/04 09:49:59;;;;;;;4.95;1.48;;;;;;;20.90;91.44;99826.19;5114915;28;20048;-66
2023/08/04 09:52:27;;;;;;;2.72;1.10;;;;;;;20.74;86.95;99823.31;5115025;28;20042;-65
2023/08/04 09:54:55;;;;;;;3.47;1.40;;;;;;;20.69;87.19;99820.53;5115008;28;20024;-66
2023/08/04 09:57:24;;;;;;;3.13;1.50;;;;;;;20.75;86.34;99816.81;5114948;28;20043;-66
2023/08/04 09:59:50;;;;;;;4.80;1.50;;;;;;;20.56;90.42;99819.00;5114411;28;20042;-64
2023/08/04 10:02:20;;;;;;;2.33;1.20;;;;;;;20.45;87.53;99819.09;5114624;28;20028;-64
2023/08/04 10:04:51;;;;;;;3.63;1.27;;;;;;;20.17;89.58;99812.69;5114758;28;20028;-64
2023/08/04 10:07:19;;;;;;;5.22;1.60;;;;;;;20.04;93.45;99824.66;5114585;28;20131;-65
2023/08/04 10:09:48;;;;;;;2.88;1.40;;;;;;;19.83;94.62;99819.16;5114516;28;20040;-65
2023/08/04 10:12:15;;;;;;;2.95;1.70;;;;;;;19.79;91.94;99822.34;5114602;28;20036;-64
2023/08/04 10:14:41;;;;;;;4.03;1.83;;;;;;;19.66;93.34;99819.94;5114707;28;20499;-65
2023/08/04 10:17:07;;;;;;;3.53;2.28;;;;;;;19.42;95.84;99829.16;5113211;28;20035;-65
2023/08/04 10:19:33;;;;;;;3.30;2.42;;;;;;;19.20;98.08;99835.25;5113999;28;20036;-65
2023/08/04 10:22:08;;;;;;;4.80;2.38;;;;;;;18.94;99.80;99831.19;5114379;28;20072;-65
2023/08/04 10:24:35;;;;;;;5.00;2.67;;;;;;;18.80;100.00;99834.41;5114440;27;20036;-65
2023/08/04 10:27:12;;;;;;;5.53;2.65;;;;;;;18.59;100.00;99847.41;5114263;28;20398;-64
2023/08/04 10:29:37;;;;;;;3.50;2.08;;;;;;;18.48;100.00;99844.72;5114013;28;20046;-64
2023/08/04 10:32:07;;;;;;;4.03;2.65;;;;;;;18.41;100.00;99842.13;5114143;28;20028;-65
2023/08/04 10:34:40;;;;;;;5.50;2.97;;;;;;;18.41;100.00;99845.66;5114200;28;20126;-64
2023/08/04 10:37:11;;;;;;;6.20;3.30;;;;;;;18.44;100.00;99847.03;5114125;28;20068;-64
2023/08/04 10:39:58;;;;;;;8.52;3.00;;;;;;;18.31;100.00;99853.47;5113807;28;20046;-65
2023/08/04 10:42:28;;;;;;;5.25;3.35;;;;;;;18.31;100.00;99855.34;5114177;28;20036;-64
2023/08/04 10:45:03;;;;;;;4.35;2.88;;;;;;;18.28;100.00;99858.53;5113921;28;20084;-64
2023/08/04 10:47:29;;;;;;;5.07;2.85;;;;;;;18.13;100.00;99854.41;5113841;28;20118;-64
2023/08/04 10:49:57;;;;;;;4.85;3.10;;;;;;;18.00;100.00;99867.28;5113725;28;20027;-64
2023/08/04 10:52:23;;;;;;;6.72;3.35;;;;;;;18.05;100.00;99862.81;5113871;28;20082;-64
2023/08/04 10:54:50;;;;;;;7.45;3.33;;;;;;;18.12;100.00;99868.09;5113945;28;20035;-64
2023/08/04 10:57:21;;;;;;;5.80;3.33;;;;;;;18.18;100.00;99862.59;5113742;28;20031;-65
2023/08/04 10:59:50;;;;;;;6.95;3.67;;;;;;;18.36;100.00;99866.28;5113483;28;20070;-64
2023/08/04 11:02:20;;;;;;;6.85;3.78;;;;;;;18.52;100.00;99875.53;5113701;28;20027;-65
2023/08/04 11:04:46;;;;;;;6.50;3.83;;;;;;;18.60;100.00;99872.50;5113622;28;20039;-66
2023/08/04 11:07:12;;;;;;;7.22;3.80;;;;;;;18.65;100.00;99878.03;5113621;28;20428;-65
2023/08/04 11:09:38;;;;;;;7.07;3.50;;;;;;;19.05;100.00;99883.53;5113372;28;20039;-65
2023/08/04 11:12:07;;;;;;;5.90;3.38;;;;;;;19.47;98.95;99886.81;5113355;28;20514;-65
2023/08/04 11:14:34;;;;;;;6.18;3.30;;;;;;;19.82;97.26;99885.88;5113426;27;20486;-66
2023/08/04 11:17:01;;;;;;;7.22;3.70;;;;;;;20.40;98.71;99889.28;5113285;28;20494;-66
2023/08/04 11:19:28;;;;;;;5.77;4.00;;;;;;;21.27;88.57;99885.97;5113309;28;20042;-65
2023/08/04 11:21:54;;;;;;;5.53;3.15;;;;;;;21.73;87.36;99892.78;5113227;28;20041;-65
2023/08/04 11:24:24;;;;;;;6.55;3.65;;;;;;;22.05;85.37;99886.59;5113210;28;20127;-66
2023/08/04 11:26:51;;;;;;;6.90;3.40;;;;;;;22.48;83.67;99885.59;5113081;28;20027;-65
2023/08/04 11:29:17;;;;;;;6.25;3.67;;;;;;;22.95;77.55;99885.69;5112890;28;20035;-64
2023/08/04 11:31:43;;;;;;;6.18;3.38;;;;;;;23.80;72.18;99883.59;5112526;28;20460;-64
2023/08/04 11:34:15;;;;;;;5.38;3.60;;;;;;;23.75;72.00;99890.91;5113189;28;20040;-64
2023/08/04 11:36:41;;;;;;;7.65;3.53;;;;;;;23.95;69.95;99890.13;5112960;28;20036;-65
2023/08/04 11:39:06;;;;;;;6.38;3.42;;;;;;;24.32;67.46;99889.84;5112701;28;20031;-66
2023/08/04 11:41:32;;;;;;;5.60;2.92;;;;;;;24.41;66.00;99893.72;5113031;28;20058;-65
2023/08/04 11:44:00;;;;;;;6.35;3.25;;;;;;;23.45;69.72;99886.97;5112895;28;20085;-64
2023/08/04 11:46:27;;;;;;;6.20;3.47;;;;;;;23.33;71.01;99902.69;5112864;28;20031;-64
2023/08/04 11:48:52;;;;;;;4.93;3.10;;;;;;;23.42;70.93;99901.09;5112635;28;20561;-64
2023/08/04 11:51:18;;;;;;;4.63;3.25;;;;;;;23.17;70.39;99896.38;5111448;28;20119;-64
2023/08/04 11:53:44;;;;;;;5.95;3.53;;;;;;;23.25;71.30;99897.75;5112450;28;20514;-64
2023/08/04 11:56:10;;;;;;;5.07;3.17;;;;;;;23.34;68.05;99893.44;5112286;27;20032;-65
2023/08/04 11:58:39;;;;;;;4.70;3.17;;;;;;;23.12;70.29;99892.81;5112098;28;20823;-66
2023/08/04 12:01:06;;;;;;;5.30;3.35;;;;;;;22.91;73.20;99894.59;5111037;28;20507;-64
2023/08/04 12:03:43;;;;;;;5.50;3.42;;;;;;;22.92;71.53;99901.66;5112370;28;20394;-65
2023/08/04 12:06:20;;;;;;;6.25;3.10;;;;;;;22.68;70.85;99898.50;5112087;28;20034;-65
2023/08/04 12:08:53;;;;;;;6.55;3.40;;;;;;;22.62;75.15;99902.25;5112001;28;20088;-65
2023/08/04 12:11:20;;;;;;;5.88;3.50;;;;;;;22.77;75.69;99905.09;5110006;28;20036;-66
2023/08/04 12:13:45;;;;;;;5.63;3.85;;;;;;;22.85;81.30;99903.78;5112221;28;20072;-64
2023/08/04 12:16:12;;;;;;;6.15;3.28;;;;;;;22.40;77.38;99899.66;5111938;28;20031;-65
2023/08/04 12:18:39;;;;;;;5.07;3.28;;;;;;;22.32;77.96;99903.66;5111646;28;20039;-65
2023/08/04 12:21:05;;;;;;;9.00;3.90;;;;;;;22.29;79.22;99906.06;5111864;28;20054;-66
2023/08/04 12:23:31;;;;;;;6.60;3.53;;;;;;;21.60;77.33;99909.44;5111959;28;20173;-65
2023/08/04 12:25:56;;;;;;;5.63;3.13;;;;;;;21.50;80.60;99914.72;5111804;28;20455;-65
2023/08/04 12:28:22;;;;;;;5.88;3.40;;;;;;;21.36;78.80;99908.88;5111538;28;20058;-64
2023/08/04 12:30:48;;;;;;;4.60;2.80;;;;;;;21.31;76.62;99911.50;5111752;28;20032;-63
2023/08/04 12:33:15;;;;;;;4.47;2.90;;;;;;;21.01;78.10;99912.72;5112187;28;20124;-63
2023/08/04 12:35:40;;;;;;;4.50;3.13;;;;;;;20.76;80.78;99913.16;5111682;28;20035;-63
2023/08/04 12:38:05;;;;;;;5.13;3.10;;;;;;;20.97;80.21;99922.41;5111516;28;20042;-62
2023/08/04 12:40:31;;;;;;;4.53;2.95;;;;;;;21.11;79.43;99923.69;5111882;28;20589;-63
2023/08/04 12:42:57;;;;;;;6.50;2.88;;;;;;;20.85;80.18;99917.09;5113426;28;20174;-64
2023/08/04 12:45:22;;;;;;;3.80;2.67;;;;;;;21.00;81.83;99927.34;5115824;28;20038;-64
2023/08/04 12:47:48;;;;;;;5.05;2.90;;;;;;;21.06;77.97;99920.06;5114961;28;20080;-63
2023/08/04 12:50:13;;;;;;;7.43;3.05;;;;;;;20.97;78.36;99927.00;5115728;28;20043;-64
2023/08/04 12:52:39;;;;;;;4.60;3.20;;;;;;;20.88;82.89;99923.91;5116154;28;20043;-65
2023/08/04 12:55:05;;;;;;;7.95;4.25;;;;;;;20.65;82.60;99929.50;5116175;28;20114;-65
2023/08/04 12:57:30;;;;;;;8.00;4.55;;;;;;;20.53;84.18;99922.28;5115543;28;20402;-65
2023/08/04 12:59:56;;;;;;;7.57;4.30;;;;;;;20.30;84.88;99925.94;5115797;28;20039;-65
2023/08/04 13:02:21;;;;;;;9.57;4.88;;;;;;;20.20;85.87;99922.22;5115905;28;20093;-65
2023/08/04 13:04:46;;;;;;;8.52;4.45;;;;;;;20.27;84.58;99914.78;5114774;28;20059;-64
2023/08/04 13:07:12;;;;;;;10.43;4.63;;;;;;;20.11;86.24;99918.28;5115825;28;20509;-63
2023/08/04 13:09:37;;;;;;;7.55;4.15;;;;;;;20.09;86.62;99912.31;5115595;28;20100;-66
2023/08/04 13:12:03;;;;;;;6.80;4.50;;;;;;;20.08;86.39;99911.47;5115516;28;20036;-65
2023/08/04 13:14:28;;;;;;;10.50;4.75;;;;;;;20.20;85.31;99906.81;5115803;28;20036;-65
2023/08/04 13:16:54;;;;;;;8.48;4.53;;;;;;;20.25;86.79;99919.63;5115552;28;20413;-65
2023/08/04 13:19:19;;;;;;;10.70;4.93;;;;;;;20.12;85.86;99919.94;5115456;28;20032;-65
2023/08/04 13:21:45;;;;;;;8.05;4.35;;;;;;;20.28;86.84;99932.66;5115536;28;20035;-65
2023/08/04 13:24:11;;;;;;;9.23;4.78;;;;;;;20.35;86.31;99927.09;5115732;28;20043;-65
2023/08/04 13:26:38;;;;;;;7.47;4.07;;;;;;;20.43;87.68;99932.09;5115386;28;20032;-65
2023/08/04 13:29:03;;;;;;;7.97;5.13;;;;;;;20.44;89.13;99931.03;5115170;28;20043;-65
2023/08/04 13:31:28;;;;;;;9.38;5.20;;;;;;;20.59;88.10;99925.88;5115313;28;20036;-63
2023/08/04 13:33:54;;;;;;;6.18;4.38;;;;;;;20.58;83.04;99927.78;5115409;28;20043;-65
2023/08/04 13:36:19;;;;;;;6.30;4.38;;;;;;;20.64;82.72;99931.38;5115225;28;20044;-66
2023/08/04 13:38:45;;;;;;;8.35;4.55;;;;;;;20.60;83.57;99919.41;5115078;28;20118;-65
2023/08/04 13:41:11;;;;;;;9.45;4.60;;;;;;;20.64;84.53;99925.16;5115275;28;20126;-65
2023/08/04 13:43:37;;;;;;;6.07;4.20;;;;;;;20.67;84.84;99925.50;5115183;28;20119;-65
2023/08/04 13:46:02;;;;;;;6.82;4.07;;;;;;;20.67;85.16;99922.78;5115043;28;20577;-66
2023/08/04 13:48:28;;;;;;;9.52;4.05;;;;;;;20.78;81.08;99926.44;5115080;28;20398;-63
2023/08/04 13:50:53;;;;;;;8.35;4.75;;;;;;;20.63;82.34;99918.94;5115034;28;20130;-64
2023/08/04 13:53:18;;;;;;;7.00;4.30;;;;;;;20.52;83.06;99931.47;5114304;28;20065;-64
2023/08/04 13:55:44;;;;;;;7.80;3.92;;;;;;;20.59;86.40;99928.59;5115109;28;20168;-64
2023/08/04 13:58:09;;;;;;;6.45;4.18;;;;;;;20.54;82.14;99928.53;5114637;28;20051;-63
2023/08/04 14:00:34;;;;;;;7.07;4.20;;;;;;;20.59;82.08;99928.59;5114977;28;20051;-65
2023/08/04 14:03:00;;;;;;;8.35;4.75;;;;;;;20.41;81.65;99928.78;5114983;28;20044;-64
2023/08/04 14:05:26;;;;;;;10.13;4.90;;;;;;;20.51;83.41;99927.13;5114734;28;20039;-64
2023/08/04 14:07:51;;;;;;;10.77;4.93;;;;;;;20.58;85.16;99935.06;5114571;27;20044;-64
2023/08/04 14:10:17;;;;;;;7.40;4.10;;;;;;;20.57;87.38;99928.84;5114693;28;20042;-65
2023/08/04 14:12:42;;;;;;;6.40;4.30;;;;;;;20.61;86.54;99922.97;5114584;28;20050;-65
2023/08/04 14:15:08;;;;;;;8.27;4.50;;;;;;;20.59;84.67;99920.47;5114498;28;20067;-65
2023/08/04 14:17:34;;;;;;;6.10;4.05;;;;;;;20.69;84.90;99931.47;5114539;28;20039;-65
2023/08/04 14:20:04;;;;;;;8.05;4.63;;;;;;;20.75;82.47;99925.06;5114228;28;20039;-64
2023/08/04 14:22:30;;;;;;;7.32;4.15;;;;;;;20.80;83.12;99919.75;5114517;28;20029;-65
2023/08/04 14:24:57;;;;;;;8.02;4.03;;;;;;;20.78;83.08;99913.72;5114406;28;20047;-64
2023/08/04 14:27:23;;;;;;;7.63;5.03;;;;;;;20.94;83.91;99916.69;5114189;28;20038;-64
2023/08/04 14:29:48;;;;;;;7.40;4.50;;;;;;;21.05;80.90;99915.72;5113988;28;20023;-65
2023/08/04 14:32:13;;;;;;;8.30;4.28;;;;;;;21.19;78.53;99925.16;5114144;28;20039;-65
2023/08/04 14:34:39;;;;;;;7.68;4.32;;;;;;;21.15;80.61;99924.00;5114314;28;20040;-66
2023/08/04 14:37:05;;;;;;;7.70;4.70;;;;;;;21.23;79.31;99926.28;5114132;28;20084;-65
2023/08/04 14:39:30;;;;;;;7.47;4.28;;;;;;;20.99;81.16;99924.84;5113936;27;20509;-65
2023/08/04 14:41:55;;;;;;;8.82;4.55;;;;;;;21.05;79.67;99926.56;5113811;28;20139;-65
2023/08/04 14:44:21;;;;;;;7.35;3.92;;;;;;;21.08;83.01;99926.91;5114018;28;20088;-65
2023/08/04 14:46:46;;;;;;;8.90;4.57;;;;;;;20.88;82.07;99928.50;5114097;28;20039;-65
2023/08/04 14:49:12;;;;;;;8.15;4.43;;;;;;;20.77;80.26;99925.63;5113765;28;20039;-65
2023/08/04 14:51:38;;;;;;;8.32;4.70;;;;;;;20.93;83.29;99921.28;5113830;28;20132;-65
2023/08/04 14:54:04;;;;;;;8.52;4.50;;;;;;;20.82;83.30;99908.66;5113962;28;20503;-65
2023/08/04 14:56:29;;;;;;;8.18;4.93;;;;;;;20.84;81.28;99914.63;5113730;28;20058;-66
2023/08/04 14:58:55;;;;;;;7.97;4.72;;;;;;;20.81;82.17;99909.72;5113455;28;20486;-65
2023/08/04 15:01:20;;;;;;;7.47;4.57;;;;;;;20.68;83.29;99904.66;5113712;28;20471;-65
2023/08/04 15:03:46;;;;;;;7.68;4.50;;;;;;;20.75;83.31;99908.00;5113723;28;20035;-64
2023/08/04 15:06:13;;;;;;;8.73;5.13;;;;;;;20.73;84.36;99910.94;5112740;28;20028;-64
2023/08/04 15:08:39;;;;;;;24.05;4.93;;;;;;;20.50;86.00;99916.56;5113375;28;20042;-65
2023/08/04 15:11:06;;;;;;;7.22;4.43;;;;;;;20.38;83.58;99907.66;5113256;28;20394;-65
2023/08/04 15:13:31;;;;;;;7.57;5.13;;;;;;;20.31;85.13;99911.34;5113566;28;20039;-65
2023/08/04 15:16:01;;;;;;;8.50;4.95;;;;;;;20.28;86.40;99908.31;5113327;28;20436;-65
2023/08/04 15:18:26;;;;;;;6.88;4.53;;;;;;;20.26;86.85;99918.56;5113079;28;20424;-65
2023/08/04 15:20:52;;;;;;;8.02;4.82;;;;;;;20.21;84.70;99913.91;5113422;28;20039;-65
2023/08/04 15:23:17;;;;;;;10.13;5.03;;;;;;;20.17;84.99;99911.91;5113345;28;20040;-65
2023/08/04 15:25:42;;;;;;;9.13;4.70;;;;;;;20.07;83.43;99909.84;5113114;28;20043;-65
2023/08/04 15:28:08;;;;;;;7.65;4.70;;;;;;;20.10;84.76;99927.47;5112903;27;20406;-65
2023/08/04 15:30:37;;;;;;;8.43;5.00;;;;;;;20.05;86.14;99930.91;5113018;28;20043;-65
2023/08/04 15:33:03;;;;;;;8.65;5.10;;;;;;;20.03;88.04;99936.56;5113165;28;20043;-66
2023/08/04 15:35:28;;;;;;;9.20;5.15;;;;;;;19.95;89.83;99941.50;5112932;28;20064;-65
2023/08/04 15:37:54;;;;;;;9.13;5.00;;;;;;;19.83;93.59;99936.19;5112759;28;20070;-65
2023/08/04 15:40:19;;;;;;;10.77;5.68;;;;;;;19.61;95.06;99941.41;5112912;28;20467;-65
2023/08/04 15:42:45;;;;;;;8.77;5.40;;;;;;;19.60;100.00;99939.78;5112886;28;20035;-64
2023/08/04 15:45:11;;;;;;;10.52;6.22;;;;;;;19.47;100.00;99934.59;5112832;28;20040;-65
2023/08/04 15:47:36;;;;;;;11.88;6.50;;;;;;;19.34;100.00;99927.59;5112765;28;20066;-65